Time;durP1;ratioP1;P1;durP2;ratioP2;P2;SDS_P1;SDS_P2;PMS_P1;PMS_P2;Temp;Humidity;BMP_temperature;BMP_pressure;BME280_temperature;BME280_humidity;BME280_pressure;Samples;Min_cycle;Max_cycle;Signal;HPM_P1;HPM_P2
2024/01/18 00:01:48;;;;;;;31.25;14.25;;;;;;;;;;4996837;28;20026;-58
2024/01/18 00:04:13;;;;;;;28.80;13.32;;;;;;;;;;4993951;28;20105;-58
2024/01/18 00:06:38;;;;;;;29.30;14.20;;;;;;;;;;4996925;28;20097;-58
2024/01/18 00:09:04;;;;;;;28.13;13.82;;;;;;;;;;4998366;28;20274;-58
2024/01/18 00:11:29;;;;;;;27.60;13.43;;;;;;;;;;5003200;28;20014;-57
2024/01/18 00:13:55;;;;;;;28.67;14.00;;;;;;;;;;4999834;28;20116;-57
2024/01/18 00:16:20;;;;;;;30.00;13.82;;;;;;;;;;5000039;28;20288;-58
2024/01/18 00:18:45;;;;;;;29.33;13.43;;;;;;;;;;4994990;28;20025;-58
2024/01/18 00:21:10;;;;;;;31.60;14.37;;;;;;;;;;5006453;28;20268;-57
2024/01/18 00:23:35;;;;;;;29.73;14.23;;;;;;;;;;4996794;28;20261;-57
2024/01/18 00:26:00;;;;;;;30.55;14.20;;;;;;;;;;5004286;28;20331;-56
2024/01/18 00:28:26;;;;;;;29.58;14.88;;;;;;;;;;4999573;28;20052;-55
2024/01/18 00:30:51;;;;;;;29.70;13.93;;;;;;;;;;5003534;28;20508;-57
2024/01/18 00:33:16;;;;;;;30.03;14.07;;;;;;;;;;5002553;28;20545;-57
2024/01/18 00:35:41;;;;;;;30.63;14.07;;;;;;;;;;5001904;28;20339;-56
2024/01/18 00:38:06;;;;;;;28.57;14.30;;;;;;;;;;5003714;28;20411;-56
2024/01/18 00:40:31;;;;;;;30.10;14.27;;;;;;;;;;5000647;28;20296;-58
2024/01/18 00:42:57;;;;;;;28.40;13.57;;;;;;;;;;5001349;28;20729;-57
2024/01/18 00:45:22;;;;;;;31.07;14.27;;;;;;;;;;4996394;28;20319;-57
2024/01/18 00:47:47;;;;;;;28.58;14.20;;;;;;;;;;5000373;28;20645;-57
2024/01/18 00:50:12;;;;;;;31.15;14.40;;;;;;;;;;5001286;28;20520;-57
2024/01/18 00:52:37;;;;;;;27.63;14.57;;;;;;;;;;5001838;28;20464;-55
2024/01/18 00:55:04;;;;;;;30.23;15.80;;;;;;;;;;5000730;28;20293;-57
2024/01/18 00:57:29;;;;;;;29.83;14.02;;;;;;;;;;5002238;28;20281;-57
2024/01/18 00:59:54;;;;;;;30.73;14.23;;;;;;;;;;5000706;28;20087;-58
2024/01/18 01:02:20;;;;;;;32.08;15.88;;;;;;;;;;4997667;28;20280;-56
2024/01/18 01:04:45;;;;;;;31.25;14.55;;;;;;;;;;5000573;28;20076;-58
2024/01/18 01:07:10;;;;;;;32.00;15.10;;;;;;;;;;5000023;28;20468;-58
2024/01/18 01:09:35;;;;;;;30.40;13.83;;;;;;;;;;5001791;28;20054;-58
2024/01/18 01:12:01;;;;;;;28.83;14.05;;;;;;;;;;4999524;28;20306;-57
2024/01/18 01:14:26;;;;;;;29.05;14.80;;;;;;;;;;4996088;28;20289;-58
2024/01/18 01:16:51;;;;;;;31.50;15.10;;;;;;;;;;4998763;28;20172;-57
2024/01/18 01:19:16;;;;;;;30.27;14.23;;;;;;;;;;4997369;28;20104;-58
2024/01/18 01:21:41;;;;;;;29.73;13.93;;;;;;;;;;5000004;28;20764;-58
2024/01/18 01:24:06;;;;;;;28.70;13.87;;;;;;;;;;4995721;28;20312;-59
2024/01/18 01:26:32;;;;;;;31.75;14.40;;;;;;;;;;5001471;28;20824;-57
2024/01/18 01:28:57;;;;;;;29.90;14.27;;;;;;;;;;5000455;28;20029;-58
2024/01/18 01:31:22;;;;;;;30.90;14.97;;;;;;;;;;5003784;28;20033;-57
2024/01/18 01:33:47;;;;;;;29.00;14.23;;;;;;;;;;5000016;28;20265;-58
2024/01/18 01:36:12;;;;;;;30.63;14.70;;;;;;;;;;4995011;28;20332;-57
2024/01/18 01:38:37;;;;;;;28.93;13.83;;;;;;;;;;4998966;28;20582;-58
2024/01/18 01:41:03;;;;;;;29.15;15.10;;;;;;;;;;4998661;28;20277;-58
2024/01/18 01:43:28;;;;;;;28.88;13.80;;;;;;;;;;5003296;28;20022;-56
2024/01/18 01:45:53;;;;;;;31.15;15.48;;;;;;;;;;4992596;28;20037;-58
2024/01/18 01:48:19;;;;;;;28.80;13.95;;;;;;;;;;5002056;28;20112;-57
2024/01/18 01:50:45;;;;;;;29.67;14.85;;;;;;;;;;5003451;28;20454;-58
2024/01/18 01:53:11;;;;;;;29.48;14.75;;;;;;;;;;5001699;28;20029;-56
2024/01/18 01:55:37;;;;;;;31.27;16.40;;;;;;;;;;4996718;28;20106;-58
2024/01/18 01:58:03;;;;;;;31.63;16.70;;;;;;;;;;4999826;28;20022;-57
2024/01/18 02:00:28;;;;;;;29.27;15.35;;;;;;;;;;4993968;28;20025;-57
2024/01/18 02:02:53;;;;;;;31.20;16.20;;;;;;;;;;4997200;28;20029;-59
2024/01/18 02:05:19;;;;;;;30.15;15.27;;;;;;;;;;4996191;28;20077;-60
2024/01/18 02:07:45;;;;;;;30.33;14.50;;;;;;;;;;4994543;28;20045;-57
2024/01/18 02:10:10;;;;;;;31.75;16.00;;;;;;;;;;4996887;28;20057;-59
2024/01/18 02:12:35;;;;;;;32.13;16.15;;;;;;;;;;4993735;28;20041;-59
2024/01/18 02:15:01;;;;;;;30.30;15.57;;;;;;;;;;4994116;28;20121;-58
2024/01/18 02:17:27;;;;;;;29.63;14.95;;;;;;;;;;4997488;28;20084;-58
2024/01/18 02:19:52;;;;;;;33.83;14.90;;;;;;;;;;5000485;28;20028;-58
2024/01/18 02:22:18;;;;;;;31.15;15.05;;;;;;;;;;4999730;28;20470;-59
2024/01/18 02:24:49;;;;;;;30.90;15.43;;;;;;;;;;5004400;28;20260;-58
2024/01/18 02:27:14;;;;;;;30.25;15.75;;;;;;;;;;5002791;28;20018;-58
2024/01/18 02:29:40;;;;;;;31.37;15.67;;;;;;;;;;5000017;28;20082;-59
2024/01/18 02:32:05;;;;;;;32.78;15.90;;;;;;;;;;4996487;28;20324;-58
2024/01/18 02:34:31;;;;;;;33.58;16.40;;;;;;;;;;5002659;28;20111;-59
2024/01/18 02:36:56;;;;;;;30.60;15.67;;;;;;;;;;5003034;28;20169;-59
2024/01/18 02:39:21;;;;;;;30.58;16.30;;;;;;;;;;5004473;28;20268;-59
2024/01/18 02:41:46;;;;;;;30.60;15.90;;;;;;;;;;5002455;28;20029;-59
2024/01/18 02:44:13;;;;;;;32.35;16.20;;;;;;;;;;5002969;28;20028;-58
2024/01/18 02:46:38;;;;;;;29.08;14.95;;;;;;;;;;4999954;28;20049;-59
2024/01/18 02:49:03;;;;;;;34.28;15.88;;;;;;;;;;5003884;28;20038;-58
2024/01/18 02:51:30;;;;;;;31.65;16.15;;;;;;;;;;5001313;28;20044;-58
2024/01/18 02:53:56;;;;;;;31.95;16.65;;;;;;;;;;5000171;28;20499;-59
2024/01/18 02:56:21;;;;;;;33.58;16.92;;;;;;;;;;5001222;28;20018;-59
2024/01/18 02:58:46;;;;;;;33.40;16.83;;;;;;;;;;5005283;28;20017;-59
2024/01/18 03:01:11;;;;;;;31.97;15.93;;;;;;;;;;5002008;28;20022;-58
2024/01/18 03:03:37;;;;;;;30.67;16.30;;;;;;;;;;5002308;28;20617;-58
2024/01/18 03:06:02;;;;;;;30.23;15.07;;;;;;;;;;5001093;28;20275;-58
2024/01/18 03:08:27;;;;;;;32.50;16.23;;;;;;;;;;4998810;28;20027;-58
2024/01/18 03:10:52;;;;;;;33.40;16.42;;;;;;;;;;5007443;28;20521;-59
2024/01/18 03:13:17;;;;;;;31.93;16.53;;;;;;;;;;5007103;28;20396;-57
2024/01/18 03:15:43;;;;;;;34.67;16.13;;;;;;;;;;5005358;28;20399;-58
2024/01/18 03:18:08;;;;;;;33.07;15.57;;;;;;;;;;5008470;28;20677;-58
2024/01/18 03:20:34;;;;;;;33.35;17.23;;;;;;;;;;5002629;28;20327;-58
2024/01/18 03:22:59;;;;;;;32.92;16.20;;;;;;;;;;5007413;28;20037;-57
2024/01/18 03:25:24;;;;;;;31.43;15.70;;;;;;;;;;5005987;28;20050;-57
2024/01/18 03:27:50;;;;;;;36.73;18.50;;;;;;;;;;5003185;28;20268;-59
2024/01/18 03:30:16;;;;;;;34.47;17.13;;;;;;;;;;4996328;28;20371;-53
2024/01/18 03:32:41;;;;;;;30.45;16.50;;;;;;;;;;4998595;28;20025;-57
2024/01/18 03:35:06;;;;;;;32.13;16.43;;;;;;;;;;5005814;28;20429;-56
2024/01/18 03:37:31;;;;;;;32.72;15.98;;;;;;;;;;5003371;28;20288;-58
2024/01/18 03:39:57;;;;;;;31.52;16.67;;;;;;;;;;5005883;28;20022;-58
2024/01/18 03:42:22;;;;;;;34.67;16.47;;;;;;;;;;5002838;28;20026;-59
2024/01/18 03:44:47;;;;;;;35.73;17.43;;;;;;;;;;4998035;28;20801;-56
2024/01/18 03:47:12;;;;;;;32.97;16.87;;;;;;;;;;5001565;28;20262;-57
2024/01/18 03:49:37;;;;;;;32.92;16.38;;;;;;;;;;5001195;28;20293;-58
2024/01/18 03:52:02;;;;;;;33.17;17.77;;;;;;;;;;5004330;28;20057;-57
2024/01/18 03:54:28;;;;;;;34.83;18.02;;;;;;;;;;5003796;28;21139;-57
2024/01/18 03:56:53;;;;;;;36.38;19.60;;;;;;;;;;4999824;28;20029;-57
2024/01/18 03:59:20;;;;;;;33.53;18.53;;;;;;;;;;5003421;28;20026;-58
2024/01/18 04:01:45;;;;;;;33.83;18.05;;;;;;;;;;4999122;28;20265;-58
2024/01/18 04:04:10;;;;;;;34.25;18.02;;;;;;;;;;5000595;28;20429;-57
2024/01/18 04:06:35;;;;;;;32.30;16.65;;;;;;;;;;4999555;28;20473;-57
2024/01/18 04:09:00;;;;;;;35.22;17.33;;;;;;;;;;5002544;28;20014;-58
2024/01/18 04:11:26;;;;;;;31.77;15.97;;;;;;;;;;4999722;28;20041;-58
2024/01/18 04:13:51;;;;;;;36.00;19.45;;;;;;;;;;4997950;28;20352;-57
2024/01/18 04:16:16;;;;;;;31.20;16.57;;;;;;;;;;4999167;28;20394;-59
2024/01/18 04:18:42;;;;;;;32.10;15.75;;;;;;;;;;5003659;28;20266;-58
2024/01/18 04:21:07;;;;;;;33.20;16.48;;;;;;;;;;5003667;28;20057;-58
2024/01/18 04:23:32;;;;;;;33.45;16.88;;;;;;;;;;5001429;28;20555;-58
2024/01/18 04:25:57;;;;;;;32.90;16.63;;;;;;;;;;5000566;28;20088;-57
2024/01/18 04:28:23;;;;;;;31.98;16.08;;;;;;;;;;4996013;28;20675;-57
2024/01/18 04:30:48;;;;;;;30.90;16.30;;;;;;;;;;5003828;28;20024;-57
2024/01/18 04:33:13;;;;;;;35.38;16.38;;;;;;;;;;4998706;28;20289;-57
2024/01/18 04:35:39;;;;;;;32.97;16.33;;;;;;;;;;4996639;28;20668;-57
2024/01/18 04:38:04;;;;;;;33.45;16.20;;;;;;;;;;5002324;28;20029;-57
2024/01/18 04:40:29;;;;;;;31.77;16.25;;;;;;;;;;5004583;28;20367;-57
2024/01/18 04:42:54;;;;;;;34.13;17.77;;;;;;;;;;5004154;28;20024;-58
2024/01/18 04:45:20;;;;;;;31.20;15.07;;;;;;;;;;4999619;28;20761;-56
2024/01/18 04:47:45;;;;;;;31.98;15.57;;;;;;;;;;4997514;28;20231;-57
2024/01/18 04:50:10;;;;;;;33.55;16.70;;;;;;;;;;4994895;28;20119;-58
2024/01/18 04:52:36;;;;;;;33.05;15.02;;;;;;;;;;4994347;28;20079;-58
2024/01/18 04:55:04;;;;;;;30.98;15.07;;;;;;;;;;4994033;28;20363;-57
2024/01/18 04:57:30;;;;;;;33.42;17.40;;;;;;;;;;4994133;28;20045;-58
2024/01/18 04:59:55;;;;;;;32.28;16.33;;;;;;;;;;4995588;28;20389;-58
2024/01/18 05:02:20;;;;;;;30.03;14.43;;;;;;;;;;4994955;28;20033;-55
2024/01/18 05:04:45;;;;;;;30.83;13.77;;;;;;;;;;4987730;28;20342;-57
2024/01/18 05:07:10;;;;;;;32.10;15.10;;;;;;;;;;4994709;28;20844;-59
2024/01/18 05:09:36;;;;;;;30.23;13.45;;;;;;;;;;4995816;28;20058;-57
2024/01/18 05:12:01;;;;;;;29.83;14.77;;;;;;;;;;5004625;28;20041;-57
2024/01/18 05:14:26;;;;;;;29.45;14.18;;;;;;;;;;4995688;28;20486;-56
2024/01/18 05:16:53;;;;;;;29.67;12.87;;;;;;;;;;4998463;28;20030;-57
2024/01/18 05:19:18;;;;;;;27.40;13.55;;;;;;;;;;5002422;28;20744;-57
2024/01/18 05:21:43;;;;;;;30.13;13.32;;;;;;;;;;4999063;28;20026;-58
2024/01/18 05:24:09;;;;;;;29.47;13.13;;;;;;;;;;5001465;28;20052;-60
2024/01/18 05:26:34;;;;;;;29.30;14.57;;;;;;;;;;5003690;28;20273;-60
2024/01/18 05:28:59;;;;;;;30.65;14.73;;;;;;;;;;5005120;28;20014;-56
2024/01/18 05:31:25;;;;;;;29.30;14.15;;;;;;;;;;4996960;28;20021;-56
2024/01/18 05:33:50;;;;;;;29.77;12.88;;;;;;;;;;5000728;28;20014;-58
2024/01/18 05:36:15;;;;;;;27.87;12.00;;;;;;;;;;5001628;28;20026;-57
2024/01/18 05:38:40;;;;;;;28.77;13.33;;;;;;;;;;5003387;28;20319;-57
2024/01/18 05:41:06;;;;;;;27.23;12.65;;;;;;;;;;5004021;28;20271;-58
2024/01/18 05:43:31;;;;;;;30.27;14.07;;;;;;;;;;5000006;28;20139;-57
2024/01/18 05:45:56;;;;;;;29.73;13.75;;;;;;;;;;4999265;28;20013;-58
2024/01/18 05:48:21;;;;;;;28.95;12.55;;;;;;;;;;5000650;28;20489;-59
2024/01/18 05:50:47;;;;;;;31.43;14.60;;;;;;;;;;4996899;28;20070;-58
2024/01/18 05:53:12;;;;;;;28.90;12.02;;;;;;;;;;4999701;28;20297;-58
2024/01/18 05:55:37;;;;;;;27.43;12.63;;;;;;;;;;4997229;28;20022;-58
2024/01/18 05:58:02;;;;;;;29.17;13.13;;;;;;;;;;4998909;28;20281;-59
2024/01/18 06:00:28;;;;;;;27.02;13.10;;;;;;;;;;4998543;28;20257;-58
2024/01/18 06:02:53;;;;;;;32.45;14.07;;;;;;;;;;4997425;28;20433;-57
2024/01/18 06:05:18;;;;;;;28.45;12.75;;;;;;;;;;4995310;28;20026;-58
2024/01/18 06:07:44;;;;;;;25.73;11.10;;;;;;;;;;4994743;28;20036;-58
2024/01/18 06:10:09;;;;;;;26.17;10.60;;;;;;;;;;4993775;28;20287;-59
2024/01/18 06:12:34;;;;;;;26.45;11.63;;;;;;;;;;4994022;28;20269;-60
2024/01/18 06:15:00;;;;;;;25.48;10.32;;;;;;;;;;4999478;28;20034;-59
2024/01/18 06:17:25;;;;;;;26.10;10.52;;;;;;;;;;4995144;28;20371;-58
2024/01/18 06:19:51;;;;;;;26.40;10.43;;;;;;;;;;4998186;28;20038;-58
2024/01/18 06:22:16;;;;;;;27.85;11.63;;;;;;;;;;4998294;28;20112;-59
2024/01/18 06:24:41;;;;;;;23.00;9.77;;;;;;;;;;4995479;28;20025;-58
2024/01/18 06:27:06;;;;;;;26.65;10.77;;;;;;;;;;4997126;28;20788;-59
2024/01/18 06:29:32;;;;;;;27.50;11.02;;;;;;;;;;4997062;28;20097;-58
2024/01/18 06:31:57;;;;;;;25.27;10.88;;;;;;;;;;4996917;28;20061;-58
2024/01/18 06:34:22;;;;;;;27.75;12.43;;;;;;;;;;4995908;28;20053;-59
2024/01/18 06:36:49;;;;;;;34.90;14.82;;;;;;;;;;4997577;28;20026;-58
2024/01/18 06:39:15;;;;;;;26.45;10.75;;;;;;;;;;4995312;28;20015;-59
2024/01/18 06:41:41;;;;;;;24.27;10.60;;;;;;;;;;4997756;28;20022;-58
2024/01/18 06:44:06;;;;;;;26.45;10.38;;;;;;;;;;4996199;28;20056;-58
2024/01/18 06:46:31;;;;;;;25.70;10.03;;;;;;;;;;4998721;28;20472;-56
2024/01/18 06:48:57;;;;;;;25.48;11.10;;;;;;;;;;4996670;28;20273;-58
2024/01/18 06:51:22;;;;;;;26.83;10.90;;;;;;;;;;4994538;28;20126;-57
2024/01/18 06:53:47;;;;;;;27.13;11.98;;;;;;;;;;4996835;28;20044;-59
2024/01/18 06:56:13;;;;;;;24.88;10.50;;;;;;;;;;4996392;28;20084;-59
2024/01/18 06:58:39;;;;;;;26.20;10.77;;;;;;;;;;4992871;28;20049;-58
2024/01/18 07:01:04;;;;;;;24.23;9.90;;;;;;;;;;5008340;28;20018;-59
2024/01/18 07:03:30;;;;;;;23.63;9.55;;;;;;;;;;5010169;28;20834;-58
2024/01/18 07:05:56;;;;;;;24.85;9.65;;;;;;;;;;5000488;28;20034;-60
2024/01/18 07:08:22;;;;;;;23.83;10.45;;;;;;;;;;5003037;28;20022;-59
2024/01/18 07:10:48;;;;;;;25.13;10.23;;;;;;;;;;4998584;28;20112;-59
2024/01/18 07:13:13;;;;;;;24.42;10.95;;;;;;;;;;5001337;28;20460;-59
2024/01/18 07:15:38;;;;;;;22.63;9.35;;;;;;;;;;5002016;28;20048;-59
2024/01/18 07:18:04;;;;;;;28.57;10.43;;;;;;;;;;5003051;28;20383;-59
2024/01/18 07:20:29;;;;;;;25.17;9.90;;;;;;;;;;4994377;28;20265;-59
2024/01/18 07:22:55;;;;;;;23.42;9.48;;;;;;;;;;4998516;28;20010;-59
2024/01/18 07:25:20;;;;;;;24.13;10.15;;;;;;;;;;4995525;28;20036;-57
2024/01/18 07:27:45;;;;;;;23.60;9.53;;;;;;;;;;4995656;28;20015;-58
2024/01/18 07:30:13;;;;;;;26.20;10.05;;;;;;;;;;4997668;28;20383;-57
2024/01/18 07:32:39;;;;;;;24.60;9.55;;;;;;;;;;4991787;28;20101;-59
2024/01/18 07:35:04;;;;;;;25.87;10.20;;;;;;;;;;5004613;28;20397;-58
2024/01/18 07:37:29;;;;;;;25.02;9.52;;;;;;;;;;4998011;28;20273;-57
2024/01/18 07:39:54;;;;;;;23.60;7.80;;;;;;;;;;4996983;28;20517;-58
2024/01/18 07:42:19;;;;;;;21.08;7.88;;;;;;;;;;4994185;28;20459;-58
2024/01/18 07:44:46;;;;;;;23.67;8.73;;;;;;;;;;4998798;28;20029;-59
2024/01/18 07:47:11;;;;;;;25.30;9.15;;;;;;;;;;5001922;28;20272;-59
2024/01/18 07:49:37;;;;;;;21.75;7.85;;;;;;;;;;5000478;28;20145;-66
2024/01/18 07:52:02;;;;;;;23.45;8.43;;;;;;;;;;5000714;28;20021;-61
2024/01/18 07:54:27;;;;;;;21.52;8.68;;;;;;;;;;5012914;28;20379;-58
2024/01/18 07:56:52;;;;;;;24.73;9.23;;;;;;;;;;5013313;28;20485;-61
2024/01/18 07:59:18;;;;;;;25.65;9.55;;;;;;;;;;5013023;28;20433;-60
2024/01/18 08:01:45;;;;;;;24.30;9.82;;;;;;;;;;5000080;28;20057;-60
2024/01/18 08:04:10;;;;;;;23.77;9.27;;;;;;;;;;4995644;28;20033;-60
2024/01/18 08:06:35;;;;;;;23.63;8.77;;;;;;;;;;4993138;28;20018;-59
2024/01/18 08:09:00;;;;;;;22.17;8.05;;;;;;;;;;4997535;28;20269;-62
2024/01/18 08:11:26;;;;;;;24.50;8.45;;;;;;;;;;4999627;28;20619;-60
2024/01/18 08:13:51;;;;;;;22.25;7.97;;;;;;;;;;4991806;28;20374;-61
2024/01/18 08:16:17;;;;;;;24.33;8.77;;;;;;;;;;4991844;28;20042;-61
2024/01/18 08:18:42;;;;;;;25.25;8.45;;;;;;;;;;5004498;28;20482;-61
2024/01/18 08:21:07;;;;;;;25.60;9.27;;;;;;;;;;5000916;28;20034;-61
2024/01/18 08:23:32;;;;;;;23.63;8.63;;;;;;;;;;4990022;28;20274;-60
2024/01/18 08:25:58;;;;;;;22.73;8.35;;;;;;;;;;4997915;28;20276;-61
2024/01/18 08:28:23;;;;;;;21.15;7.45;;;;;;;;;;5011913;28;20497;-61
2024/01/18 08:30:49;;;;;;;25.25;8.15;;;;;;;;;;5005244;28;20382;-61
2024/01/18 08:33:14;;;;;;;22.80;7.28;;;;;;;;;;5011820;28;20030;-61
2024/01/18 08:35:40;;;;;;;25.25;7.82;;;;;;;;;;5005822;28;20046;-59
2024/01/18 08:38:05;;;;;;;20.83;7.55;;;;;;;;;;5003434;28;20033;-59
2024/01/18 08:40:30;;;;;;;22.73;8.35;;;;;;;;;;4996649;28;20030;-60
2024/01/18 08:42:56;;;;;;;22.45;6.95;;;;;;;;;;5001780;28;20019;-60
2024/01/18 08:45:22;;;;;;;21.98;7.15;;;;;;;;;;4992945;28;20041;-60
2024/01/18 08:47:47;;;;;;;23.67;7.85;;;;;;;;;;4998955;28;20026;-60
2024/01/18 08:50:15;;;;;;;22.45;8.30;;;;;;;;;;5007864;28;20112;-60
2024/01/18 08:52:40;;;;;;;21.80;7.97;;;;;;;;;;5001084;28;20374;-60
2024/01/18 08:55:06;;;;;;;22.13;8.13;;;;;;;;;;5006771;28;20489;-60
2024/01/18 08:57:31;;;;;;;22.42;8.98;;;;;;;;;;4996013;28;20036;-60
2024/01/18 08:59:56;;;;;;;24.33;8.95;;;;;;;;;;4992965;28;20145;-59
2024/01/18 09:02:22;;;;;;;23.70;8.02;;;;;;;;;;4997113;28;20033;-60
2024/01/18 09:04:47;;;;;;;21.97;8.73;;;;;;;;;;4997555;28;20165;-60
2024/01/18 09:07:12;;;;;;;22.27;7.33;;;;;;;;;;4994694;28;20277;-60
2024/01/18 09:09:37;;;;;;;22.37;7.60;;;;;;;;;;4998051;28;20352;-61
2024/01/18 09:12:02;;;;;;;19.93;6.93;;;;;;;;;;4998507;28;20273;-60
2024/01/18 09:14:28;;;;;;;20.25;7.15;;;;;;;;;;4995711;28;20863;-60
2024/01/18 09:16:53;;;;;;;18.67;6.80;;;;;;;;;;4998360;28;20034;-60
2024/01/18 09:19:20;;;;;;;18.85;6.38;;;;;;;;;;4994595;28;20265;-61
2024/01/18 09:21:46;;;;;;;20.80;6.32;;;;;;;;;;4996945;28;20049;-60
2024/01/18 09:24:12;;;;;;;18.95;6.10;;;;;;;;;;4997561;28;20113;-60
2024/01/18 09:26:37;;;;;;;19.33;6.00;;;;;;;;;;4997938;28;20152;-61
2024/01/18 09:29:02;;;;;;;17.92;5.80;;;;;;;;;;4996141;28;20502;-60
2024/01/18 09:31:28;;;;;;;21.55;6.45;;;;;;;;;;4995124;28;20023;-60
2024/01/18 09:33:53;;;;;;;17.42;5.65;;;;;;;;;;4999990;28;20034;-60
2024/01/18 09:36:18;;;;;;;21.50;6.20;;;;;;;;;;5003009;28;20053;-61
2024/01/18 09:38:44;;;;;;;23.15;6.13;;;;;;;;;;4997511;28;20273;-61
2024/01/18 09:41:09;;;;;;;23.80;7.03;;;;;;;;;;4995745;28;20640;-61
2024/01/18 09:43:36;;;;;;;22.77;6.57;;;;;;;;;;5005359;28;20030;-61
2024/01/18 09:46:03;;;;;;;23.20;6.72;;;;;;;;;;5001131;28;20037;-61
2024/01/18 09:48:29;;;;;;;20.52;4.82;;;;;;;;;;5005516;28;20054;-60
2024/01/18 09:50:54;;;;;;;18.20;5.47;;;;;;;;;;5001386;28;20661;-61
2024/01/18 09:53:20;;;;;;;16.45;4.80;;;;;;;;;;5011581;28;20515;-61
2024/01/18 09:55:47;;;;;;;17.93;5.27;;;;;;;;;;5007026;28;20025;-61
2024/01/18 09:58:12;;;;;;;16.80;4.50;;;;;;;;;;5006288;28;21137;-61
2024/01/18 10:00:41;;;;;;;16.20;5.03;;;;;;;;;;4994909;28;20055;-61
2024/01/18 10:03:07;;;;;;;13.98;4.18;;;;;;;;;;4986562;28;20504;-61
2024/01/18 10:05:32;;;;;;;17.60;4.93;;;;;;;;;;4988805;28;20033;-62
2024/01/18 10:07:57;;;;;;;13.27;4.13;;;;;;;;;;4985539;28;20022;-61
2024/01/18 10:10:22;;;;;;;15.57;4.90;;;;;;;;;;4981882;28;20061;-61
2024/01/18 10:12:48;;;;;;;20.30;4.83;;;;;;;;;;4984491;28;20319;-62
2024/01/18 10:15:28;;;;;;;18.90;5.40;;;;;;;;;;4983251;28;20293;-61
2024/01/18 10:17:53;;;;;;;19.50;5.20;;;;;;;;;;4984783;28;20485;-62
2024/01/18 10:20:18;;;;;;;16.87;4.93;;;;;;;;;;4985202;28;20025;-63
2024/01/18 10:22:45;;;;;;;21.55;5.15;;;;;;;;;;4985721;28;20277;-61
2024/01/18 10:25:12;;;;;;;16.92;4.93;;;;;;;;;;4984621;28;20068;-62
2024/01/18 10:27:39;;;;;;;16.95;4.97;;;;;;;;;;4985010;28;20034;-60
2024/01/18 10:30:04;;;;;;;20.23;5.13;;;;;;;;;;4987172;28;20462;-62
2024/01/18 10:32:32;;;;;;;16.88;4.72;;;;;;;;;;4988319;28;20072;-62
2024/01/18 10:34:57;;;;;;;16.52;4.85;;;;;;;;;;4993962;28;20032;-61
2024/01/18 10:37:23;;;;;;;15.23;4.23;;;;;;;;;;4993161;28;20021;-62
2024/01/18 10:39:48;;;;;;;15.05;4.22;;;;;;;;;;5001136;28;20752;-61
2024/01/18 10:42:13;;;;;;;18.27;4.55;;;;;;;;;;5004067;28;20110;-61
2024/01/18 10:44:42;;;;;;;16.05;4.25;;;;;;;;;;5012256;28;20108;-62
2024/01/18 10:47:11;;;;;;;15.32;4.45;;;;;;;;;;5001077;28;20031;-67
2024/01/18 10:49:37;;;;;;;17.02;4.40;;;;;;;;;;5003948;28;20067;-54
2024/01/18 10:52:03;;;;;;;14.73;3.63;;;;;;;;;;5003562;28;20413;-62
2024/01/18 10:54:30;;;;;;;17.02;5.43;;;;;;;;;;5000510;28;20062;-65
2024/01/18 10:56:56;;;;;;;20.35;5.90;;;;;;;;;;4995305;28;20034;-62
2024/01/18 10:59:21;;;;;;;19.08;5.50;;;;;;;;;;4997749;28;20071;-62
2024/01/18 11:01:47;;;;;;;16.75;4.93;;;;;;;;;;4998951;28;20117;-61
2024/01/18 11:04:12;;;;;;;17.48;4.88;;;;;;;;;;4998113;28;20030;-61
2024/01/18 11:06:38;;;;;;;18.10;5.20;;;;;;;;;;5002152;28;20331;-61
2024/01/18 11:09:03;;;;;;;19.33;5.45;;;;;;;;;;4988070;28;20037;-61
2024/01/18 11:11:29;;;;;;;16.03;4.50;;;;;;;;;;4989373;28;20037;-61
2024/01/18 11:13:54;;;;;;;17.40;4.40;;;;;;;;;;5004602;28;20275;-61
2024/01/18 11:16:20;;;;;;;15.68;4.13;;;;;;;;;;5004562;28;21268;-61
2024/01/18 11:18:51;;;;;;;17.25;4.40;;;;;;;;;;4999999;28;20026;-61
2024/01/18 11:21:16;;;;;;;16.63;4.22;;;;;;;;;;4986649;28;20018;-62
2024/01/18 11:23:41;;;;;;;19.45;5.40;;;;;;;;;;4979715;28;20030;-62
2024/01/18 11:26:27;;;;;;;17.27;4.47;;;;;;;;;;4979384;28;20034;-61
2024/01/18 11:29:12;;;;;;;15.80;4.03;;;;;;;;;;4980148;28;20085;-60
2024/01/18 11:31:45;;;;;;;16.98;4.65;;;;;;;;;;4986492;28;20030;-61
2024/01/18 11:34:20;;;;;;;15.18;3.50;;;;;;;;;;5002179;28;20759;-61
2024/01/18 11:36:46;;;;;;;21.90;4.53;;;;;;;;;;5013063;28;20133;-61
2024/01/18 11:39:11;;;;;;;14.48;3.70;;;;;;;;;;5013102;28;20030;-61
2024/01/18 11:41:37;;;;;;;12.35;3.30;;;;;;;;;;5012171;28;20092;-61
2024/01/18 11:44:07;;;;;;;14.55;3.22;;;;;;;;;;5010136;28;20069;-61
2024/01/18 11:46:32;;;;;;;15.63;3.00;;;;;;;;;;5010565;28;20017;-60
2024/01/18 11:48:57;;;;;;;12.98;3.13;;;;;;;;;;5009231;28;20123;-58
2024/01/18 11:51:23;;;;;;;10.48;2.65;;;;;;;;;;5009254;28;20092;-61
2024/01/18 11:53:48;;;;;;;12.70;3.00;;;;;;;;;;5010060;28;20029;-58
2024/01/18 11:56:13;;;;;;;11.10;2.70;;;;;;;;;;5009527;28;20637;-61
2024/01/18 11:58:39;;;;;;;8.93;3.10;;;;;;;;;;5009556;28;20029;-61
2024/01/18 12:01:04;;;;;;;10.48;2.70;;;;;;;;;;5008322;28;20261;-61
2024/01/18 12:03:30;;;;;;;10.93;2.92;;;;;;;;;;5010526;28;20465;-61
2024/01/18 12:05:55;;;;;;;10.73;2.90;;;;;;;;;;5010875;28;20041;-60
2024/01/18 12:08:20;;;;;;;10.55;2.85;;;;;;;;;;5010387;28;20520;-60
2024/01/18 12:10:46;;;;;;;9.90;2.80;;;;;;;;;;5009587;28;20018;-62
2024/01/18 12:13:11;;;;;;;7.68;2.47;;;;;;;;;;5010464;28;20536;-61
2024/01/18 12:15:37;;;;;;;14.85;3.35;;;;;;;;;;5010393;28;20548;-60
2024/01/18 12:18:02;;;;;;;12.10;2.95;;;;;;;;;;5008922;28;20382;-63
2024/01/18 12:20:27;;;;;;;11.88;3.20;;;;;;;;;;5010097;28;20557;-59
2024/01/18 12:22:52;;;;;;;9.90;2.60;;;;;;;;;;5010102;28;20109;-61
2024/01/18 12:25:17;;;;;;;9.60;2.70;;;;;;;;;;5008287;28;20461;-60
2024/01/18 12:27:43;;;;;;;8.80;2.95;;;;;;;;;;5009917;28;20267;-60
2024/01/18 12:30:08;;;;;;;10.65;2.42;;;;;;;;;;5010333;28;20121;-60
2024/01/18 12:32:35;;;;;;;10.77;3.20;;;;;;;;;;5009097;28;20374;-61
2024/01/18 12:35:00;;;;;;;8.85;2.60;;;;;;;;;;5010229;28;20018;-60
2024/01/18 12:37:26;;;;;;;8.90;2.47;;;;;;;;;;5009179;28;20544;-60
2024/01/18 12:39:51;;;;;;;11.93;2.73;;;;;;;;;;5011643;28;20044;-60
2024/01/18 12:42:16;;;;;;;13.45;2.60;;;;;;;;;;5011093;28;20899;-60
2024/01/18 12:44:42;;;;;;;10.13;2.30;;;;;;;;;;5011014;28;20022;-61
2024/01/18 12:47:07;;;;;;;9.23;2.40;;;;;;;;;;5011794;28;20347;-60
2024/01/18 12:49:33;;;;;;;5.80;2.00;;;;;;;;;;5011436;28;20293;-60
2024/01/18 12:51:59;;;;;;;10.88;2.58;;;;;;;;;;5011391;28;20072;-60
2024/01/18 12:54:24;;;;;;;9.13;2.33;;;;;;;;;;5011416;28;20022;-62
2024/01/18 12:57:00;;;;;;;10.80;2.63;;;;;;;;;;5011639;28;20028;-60
2024/01/18 12:59:26;;;;;;;7.88;2.38;;;;;;;;;;5011881;28;20026;-63
2024/01/18 13:01:52;;;;;;;11.57;2.45;;;;;;;;;;5011746;28;20018;-61
2024/01/18 13:04:20;;;;;;;13.05;2.40;;;;;;;;;;5010469;28;20018;-61
2024/01/18 13:06:46;;;;;;;13.38;2.50;;;;;;;;;;4988515;28;20037;-62
2024/01/18 13:09:14;;;;;;;6.95;2.22;;;;;;;;;;4982596;28;20331;-60
2024/01/18 13:11:40;;;;;;;8.55;2.17;;;;;;;;;;4995517;28;20034;-61
2024/01/18 13:14:06;;;;;;;14.48;2.85;;;;;;;;;;5001273;28;20030;-60
2024/01/18 13:16:33;;;;;;;8.75;2.45;;;;;;;;;;5001527;28;20431;-60
2024/01/18 13:18:59;;;;;;;10.50;2.30;;;;;;;;;;5003644;28;20048;-60
2024/01/18 13:21:24;;;;;;;10.02;2.28;;;;;;;;;;5000621;28;20049;-62
2024/01/18 13:23:49;;;;;;;6.80;2.47;;;;;;;;;;4989143;28;20022;-62
2024/01/18 13:26:14;;;;;;;7.53;2.30;;;;;;;;;;4997076;28;20296;-60
2024/01/18 13:28:42;;;;;;;9.27;2.10;;;;;;;;;;5000133;28;20276;-60
2024/01/18 13:31:07;;;;;;;10.25;2.00;;;;;;;;;;4987768;28;20288;-60
2024/01/18 13:33:32;;;;;;;7.93;1.90;;;;;;;;;;4987788;28;20022;-61
2024/01/18 13:35:57;;;;;;;6.40;1.90;;;;;;;;;;4987635;28;20611;-61
2024/01/18 13:38:22;;;;;;;7.25;1.88;;;;;;;;;;4987409;28;20281;-61
2024/01/18 13:40:48;;;;;;;8.43;1.90;;;;;;;;;;4988061;28;20375;-61
2024/01/18 13:43:13;;;;;;;7.03;1.93;;;;;;;;;;4987625;28;20272;-60
2024/01/18 13:45:38;;;;;;;11.53;2.13;;;;;;;;;;4998580;28;20264;-60
2024/01/18 13:48:03;;;;;;;9.73;2.03;;;;;;;;;;4999556;28;20799;-61
2024/01/18 13:50:28;;;;;;;7.45;2.15;;;;;;;;;;4997773;28;20288;-60
2024/01/18 13:52:54;;;;;;;5.50;1.70;;;;;;;;;;4998392;28;20426;-60
2024/01/18 13:55:19;;;;;;;6.13;2.20;;;;;;;;;;4999749;28;20040;-60
2024/01/18 13:57:44;;;;;;;5.75;1.80;;;;;;;;;;5001620;28;20288;-60
2024/01/18 14:00:11;;;;;;;7.63;1.87;;;;;;;;;;4999876;28;20018;-60
2024/01/18 14:02:36;;;;;;;7.07;2.17;;;;;;;;;;4995558;28;20249;-60
2024/01/18 14:05:03;;;;;;;5.38;1.83;;;;;;;;;;4996938;28;20545;-60
2024/01/18 14:07:28;;;;;;;9.40;2.00;;;;;;;;;;4998859;28;20474;-60
2024/01/18 14:09:53;;;;;;;10.27;2.10;;;;;;;;;;4998437;28;20018;-60
2024/01/18 14:12:18;;;;;;;6.00;2.60;;;;;;;;;;4997589;28;20264;-60
2024/01/18 14:14:43;;;;;;;8.43;1.52;;;;;;;;;;5002827;28;20292;-61